Steptoe Valley North, Nevada Weather observations

Data are for 10 minute period ending at time listed.
 Day   Time   Solar   Ave.   Ave.  Ave.  Vector  Max.   Baro.   Total    
  of    of     Rad.   Air    Rel.  Wind   Wind   Wind  Press.  Precip.   
Year   Day            Temp.  Hum.  Speed  Dir.   Gust                    
2016   (PST)  Kw/m2    F      %     mph   deg.    mph    mb.     in.     
-------------------------------------------------------------------------
 121   22:00   0.00   38.8    82    0.7    25     1.3   820.7    0.00 
 121   22:10   0.00   38.7    82    0.6    19     1.9   820.6    0.00 
 121   22:20   0.00   37.4    84    1.4    19     2.3   820.6    0.00 
 121   22:30   0.00   36.9    86    1.3    59     2.3   820.6    0.00 
 121   22:40   0.00   36.6    88    1.8    96     3.8   820.5    0.00 
 121   22:50   0.00   37.1    90    2.6   102     4.5   820.6    0.00 
 121   23:00   0.00   37.7    90    0.3    43     1.8   820.4    0.00 
 121   23:10   0.00   38.0    89    1.4    34     3.8   820.4    0.00 
 121   23:20   0.00   38.0    90    3.5    36     5.4   820.6    0.00 
 121   23:30   0.00   38.3    88    4.0   347     5.2   820.6    0.00 
 121   23:40   0.00   38.0    89    2.0    11     2.9   820.4    0.00 
 121   23:50   0.00   38.2    90    2.9    31     3.3   820.4    0.00 
 122    0:00   0.00   38.7    89    3.7    59     4.7   820.5    0.01 
 122    0:10   0.00   39.0    89    4.2    64     6.6   820.5    0.00 
 122    0:20   0.00   38.6    89    3.2    35     4.3   820.2    0.00 
 122    0:30   0.00   37.2    90    3.9    14     4.5   820.1    0.00 
 122    0:40   0.00   36.1    91    3.9     6     4.6   820.1    0.00 
 122    0:50   0.00   36.0    93    3.4    14     5.3   820.1    0.00 
 122    1:00   0.00   36.5    93    4.6   345     5.9   820.0    0.00 
 122    1:10   0.00   37.7    91    5.8   328     8.0   819.9    0.00 
 122    1:20   0.00   38.2    90    4.5   337     6.1   819.9    0.00 
 122    1:30   0.00   37.7    90    4.0   352     4.9   819.8    0.00 
 122    1:40   0.00   36.9    90    4.8   356     5.8   819.8    0.00 
 122    1:50   0.00   36.2    91    4.5   352     5.6   819.8    0.00 
 122    2:00   0.00   35.8    92    5.1   353     6.1   819.8    0.00 
 122    2:10   0.00   35.6    93    5.3    16     7.2   819.8    0.00 
 122    2:20   0.00   36.4    92    5.3    18     6.9   819.8    0.00 
 122    2:30   0.00   37.3    92    4.5    26     6.1   819.9    0.00 
 122    2:40   0.00   37.9    92    6.3    28     8.3   819.9    0.00 
 122    2:50   0.00   37.9    90    6.7    16     8.6   819.9    0.00 
 122    3:00   0.00   37.3    90    6.4    16     7.9   820.0    0.00 
 122    3:10   0.00   36.9    90    6.3     4     8.0   820.0    0.00 
 122    3:20   0.00   36.2    90    6.0     4     7.2   820.0    0.00 
 122    3:30   0.00   35.7    91    5.3     9     7.1   820.1    0.00 
 122    3:40   0.00   35.1    91    5.2     9     6.6   820.1    0.00 
 122    3:50   0.00   35.6    88    6.0    22     8.3   820.1    0.00 
 122    4:00   0.00   36.4    83    5.2    37     7.5   820.1    0.00 
 122    4:10   0.00   34.9    85    4.3    33     5.0   820.2    0.00 
 122    4:20   0.00   34.0    87    4.1    14     5.4   820.2    0.00 
 122    4:30   0.00   34.2    87    4.1    14     5.6   820.3    0.00 
 122    4:40   0.00   34.4    86    4.9    28     6.4   820.3    0.00 
 122    4:50   0.01   34.6    87    4.9    27     5.8   820.4    0.00 
 122    5:00   0.02   34.6    89    3.9    16     5.7   820.5    0.00 
 122    5:10   0.02   35.1    90    3.8   358     5.0   820.7    0.00 
 122    5:20   0.04   35.4    89    3.9    18     4.7   820.7    0.00 
 122    5:30   0.06   35.8    88    4.1    38     5.3   820.8    0.00 
 122    5:40   0.08   36.6    87    4.6    21     6.1   820.8    0.00 
 122    5:50   0.13   37.9    86    3.4    14     6.1   820.8    0.00 
 122    6:00   0.21   40.0    79    3.9     8     7.3   821.0    0.00 
 122    6:10   0.18   40.6    76    5.2    13     7.2   821.0    0.00 
 122    6:20   0.15   40.5    74    6.7    20     9.6   821.1    0.00 
 122    6:30   0.13   40.4    68    8.3    21    14.8   821.0    0.00 
 122    6:40   0.16   40.4    71    8.6    42    14.4   821.0    0.00 
 122    6:50   0.27   41.2    70    7.8    47    13.8   821.1    0.00 
 122    7:00   0.37   42.2    63   11.9    43    16.3   821.2    0.00 
 122    7:10   0.36   42.9    62   10.1    37    13.2   821.2    0.00 
 122    7:20   0.18   42.1    64   10.2    36    14.8   821.2    0.00 
 122    7:30   0.35   42.1    64   12.8    40    19.6   821.1    0.00 
 122    7:40   0.52   43.0    61   14.4    44    19.1   821.2    0.00 
 122    7:50   0.47   43.7    59   15.1    47    21.0   821.2    0.00 
 122    8:00   0.44   43.4    59   15.5    52    22.0   821.1    0.00 
 122    8:10   0.46   43.3    58   16.3    50    19.9   821.1    0.00 
 122    8:20   0.57   44.2    58   15.4    52    20.8   821.0    0.00 
 122    8:30   0.69   44.7    57   16.2    37    22.4   821.0    0.00 
 122    8:40   0.69   44.9    56   16.1    38    20.5   821.0    0.00 
 122    8:50   0.40   44.2    56   15.2    46    20.2   820.9    0.00 
 122    9:00   0.51   43.6    56   14.1    60    19.1   820.8    0.00 
 122    9:10   0.88   45.5    55   13.2    69    21.0   820.9    0.00 
 122    9:20   0.91   46.0    55   14.0    70    20.7   820.8    0.00 
 122    9:30   0.98   46.7    55   15.7    66    21.7   820.8    0.00 
 122    9:40   0.99   46.9    53   14.7    66    19.8   820.8    0.00 
 122    9:50   0.92   47.0    54   14.5    63    21.5   820.8    0.00 
 122   10:00   0.95   47.7    54   14.1    57    20.3   820.8    0.00 
 122   10:10   0.58   46.7    53   12.6    59    20.2   820.8    0.00 
 122   10:20   0.77   47.1    52   12.6    54    16.9   820.8    0.00 
 122   10:30   0.90   47.7    50   12.9    47    19.0   820.8    0.00 
 122   10:40   0.82   48.5    50   11.6    42    15.8   820.8    0.00 
 122   10:50   0.93   47.4    53   10.8    61    16.6   820.8    0.00 
 122   11:00   0.53   47.3    52    9.3    45    13.4   820.8    0.00 
 122   11:10   0.36   46.6    51    9.9    35    16.1   820.8    0.00 
 122   11:20   0.52   47.2    52   10.0    46    15.3   820.8    0.00 
 122   11:30   0.39   47.4    53   11.3    53    18.8   820.8    0.00 
 122   11:40   0.44   46.9    51    7.9    53    14.4   820.9    0.00 
 122   11:50   0.46   47.4    50    9.3    50    15.1   820.9    0.00 
 122   12:00   0.32   47.2    53   11.4    46    16.4   820.9    0.00 
 122   12:10   0.39   46.8    53   11.0    70    17.0   820.9    0.00 
 122   12:20   0.73   47.6    52    9.0    79    14.1   820.8    0.00 
 122   12:30   0.64   48.9    51   10.8    67    16.6   820.8    0.00 
 122   12:40   0.36   47.8    49    9.8    46    14.0   820.8    0.00 
 122   12:50   0.34   47.7    50    7.3    63    12.6   821.0    0.00 
 122   13:00   0.33   47.7    52    8.8    80    13.2   821.0    0.00 
 122   13:10   0.29   47.5    50    8.5    59    12.7   821.0    0.00 
 122   13:20   0.30   47.5    52    9.0    77    14.0   821.1    0.00 
 122   13:30   0.28   47.6    53    9.6    84    13.9   821.1    0.00 
 122   13:40   0.35   47.8    52    9.8    74    15.0   821.1    0.00 
 122   13:50   0.34   48.3    48    8.7    57    14.1   821.1    0.00 
 122   14:00   0.35   48.3    46    5.9    63    11.4   821.1    0.00 
 122   14:10   0.27   48.4    50    8.7    77    14.4   821.1    0.00 
 122   14:20   0.25   48.0    53   10.4    68    14.3   821.1    0.00 
 122   14:30   0.28   48.3    53    8.4    78    11.5   821.1    0.00 
 122   14:40   0.35   48.2    49    5.9    97     9.8   821.1    0.00 
 122   14:50   0.37   48.8    49    6.3    74     9.9   821.0    0.00 
 122   15:00   0.29   48.8    51    6.4    81    12.1   821.0    0.00 
 122   15:10   0.34   48.6    50    6.8    76    10.4   821.0    0.00 
 122   15:20   0.29   48.8    48    4.8    72    10.8   821.0    0.00 
 122   15:30   0.26   48.5    50    6.0   107     9.7   821.0    0.00 
 122   15:40   0.25   48.7    51    6.2    89     9.2   821.0    0.00 
 122   15:50   0.22   48.4    52    6.4    92    10.9   821.0    0.00 
 122   16:00   0.29   48.7    51    6.4    76    11.0   821.1    0.00 
 122   16:10   0.27   49.0    48    6.5    61     9.1   821.0    0.00 
 122   16:20   0.33   49.6    47    6.0    55     9.8   821.0    0.00 
 122   16:30   0.21   49.0    47    5.8    59     8.6   821.0    0.00 
 122   16:40   0.28   49.1    48    4.8    82     7.4   821.1    0.00 
 122   16:50   0.14   49.0    46    4.6    90     6.4   821.1    0.00 
 122   17:00   0.24   49.4    44    2.5    37     5.0   820.9    0.00 
 122   17:10   0.23   50.3    43    4.3    51     8.3   820.9    0.00 
 122   17:20   0.19   49.8    44    4.7    81     7.9   820.8    0.00 
 122   17:30   0.17   50.0    44    4.1    47     7.1   820.8    0.00 
 122   17:40   0.14   50.1    45    3.1    25     4.5   820.9    0.00 
 122   17:50   0.12   49.6    47    4.1    43     6.3   820.9    0.00 
 122   18:00   0.10   48.5    52    5.2    43     8.7   821.0    0.00 
 122   18:10   0.06   46.6    57    5.3    36     7.2   821.0    0.00 
 122   18:20   0.03   44.9    62    6.0    28     7.8   821.0    0.00 
 122   18:30   0.01   43.9    63    6.0    28     7.8   821.0    0.00 
 122   18:40   0.01   41.7    70    4.8    32     5.8   821.2    0.00 
 122   18:50   0.01   40.3    72    5.6    43     7.0   821.2    0.00 
 122   19:00   0.00   39.2    74    4.9    48     5.7   821.3    0.00 
 122   19:10   0.00   38.0    76    4.5    44     4.9   821.5    0.00 
 122   19:20   0.00   36.6    80    4.2    49     5.4   821.7    0.00 
 122   19:30   0.00   36.8    83    4.9    65     6.1   821.9    0.00 
 122   19:40   0.00   38.6    77    4.7    63     6.4   822.0    0.00 
 122   19:50   0.00   35.1    81    4.9    42     6.8   822.2    0.00 
 122   20:00   0.00   35.5    83    4.5    49     6.2   822.4    0.00 
 122   20:10   0.00   34.6    84    4.4    53     5.8   822.5    0.00 
 122   20:20   0.00   33.3    86    5.0    34     6.1   822.6    0.00 
 122   20:30   0.00   33.6    87    5.2    45     6.4   822.7    0.00 
 122   20:40   0.00   33.9    87    4.6    52     5.7   822.9    0.00 
 122   20:50   0.00   35.2    85    5.3    71     6.7   822.9    0.00 
 122   21:00   0.00   36.8    81    4.3    79     6.1   822.9    0.00 
 122   21:10   0.00   35.8    79    4.1    69     5.5   823.0    0.00 
 122   21:20   0.00   32.6    82    1.9    54     2.9   823.0    0.00 
 122   21:30   0.00   31.5    86    0.9   340     3.6   823.0    0.00 
 122   21:40   0.00   31.4    87    2.0   336     5.4   823.1    0.00 
 122   21:50   0.00   32.2    88    2.3   306     3.3   823.1    0.00 

Return to Steptoe Valley North graphs page.


Western Regional Climate Center,wrcc@dri.edu